Time;durP1;ratioP1;P1;durP2;ratioP2;P2;SDS_P1;SDS_P2;PMS_P1;PMS_P2;Temp;Humidity;BMP_temperature;BMP_pressure;BME280_temperature;BME280_humidity;BME280_pressure;Samples;Min_cycle;Max_cycle;Signal;HPM_P1;HPM_P2
2021/05/15 00:02:11;;;;;;;7.03;3.87;;;;;;;16.26;62.44;100001.30;1790512;80;21138;-50
2021/05/15 00:04:39;;;;;;;6.03;4.05;;;;;;;16.24;62.47;99997.84;1735292;80;21154;-49
2021/05/15 00:07:06;;;;;;;6.12;3.70;;;;;;;16.21;62.74;100006.78;1726234;83;21205;-50
2021/05/15 00:09:34;;;;;;;4.75;3.40;;;;;;;16.22;62.84;100010.31;1713096;80;21614;-49
2021/05/15 00:12:02;;;;;;;6.55;3.95;;;;;;;16.23;62.86;100012.05;1779434;80;21111;-49
2021/05/15 00:14:31;;;;;;;5.25;4.12;;;;;;;16.22;63.01;100003.20;1726343;81;21135;-67
2021/05/15 00:16:59;;;;;;;6.67;4.30;;;;;;;16.24;63.07;100004.48;1726419;83;21192;-67
2021/05/15 00:19:28;;;;;;;11.18;4.85;;;;;;;16.22;63.26;100009.84;1753828;80;21151;-49
2021/05/15 00:21:55;;;;;;;5.90;4.10;;;;;;;16.21;63.26;100018.73;1749515;82;21135;-66
2021/05/15 00:24:23;;;;;;;7.17;3.90;;;;;;;16.20;63.21;100013.90;1756065;82;21147;-67
2021/05/15 00:26:50;;;;;;;7.45;4.20;;;;;;;16.26;63.11;100015.91;1754240;82;21155;-49
2021/05/15 00:29:17;;;;;;;4.33;3.92;;;;;;;16.24;63.19;100016.42;1742483;80;21575;-67
2021/05/15 00:31:44;;;;;;;5.42;4.30;;;;;;;16.26;63.05;100014.58;1765483;80;21742;-67
2021/05/15 00:34:12;;;;;;;6.75;4.30;;;;;;;16.26;62.85;100010.11;1787485;80;21118;-49
2021/05/15 00:36:39;;;;;;;6.78;4.45;;;;;;;16.25;62.68;100004.41;1782017;79;21180;-67
2021/05/15 00:39:07;;;;;;;6.72;3.70;;;;;;;16.19;62.74;100008.63;1787840;80;21526;-49
2021/05/15 00:41:37;;;;;;;4.97;3.65;;;;;;;16.17;62.74;100000.75;1759993;80;21130;-49
2021/05/15 00:44:28;;;;;;;;;;;;;;;16.19;62.47;100001.55;1786556;80;21257;-50
2021/05/15 00:46:43;;;;;;;4.28;3.25;;;;;;;16.16;62.32;100001.67;1797694;79;20161;-66
2021/05/15 00:49:10;;;;;;;6.08;4.08;;;;;;;16.12;62.24;99990.78;1783716;79;21166;-50
2021/05/15 00:51:37;;;;;;;5.97;3.95;;;;;;;16.09;62.27;99988.73;1787284;80;21697;-66
2021/05/15 00:54:04;;;;;;;5.58;3.83;;;;;;;16.04;62.19;99991.56;1791089;79;21558;-49
2021/05/15 00:56:32;;;;;;;6.37;4.20;;;;;;;15.98;62.14;99990.48;1772237;79;21155;-67
2021/05/15 00:58:59;;;;;;;8.53;4.70;;;;;;;15.94;62.19;100004.80;1781283;80;21114;-67
2021/05/15 01:01:27;;;;;;;5.12;3.37;;;;;;;15.90;62.23;100006.72;1790155;80;21134;-49
2021/05/15 01:03:54;;;;;;;6.20;4.00;;;;;;;15.86;62.38;100013.95;1785741;79;21139;-50
2021/05/15 01:06:21;;;;;;;7.47;4.28;;;;;;;15.77;62.50;100016.94;1757934;80;21312;-67
2021/05/15 01:08:49;;;;;;;5.28;3.80;;;;;;;15.72;62.50;100019.75;1782450;80;21122;-67
2021/05/15 01:11:18;;;;;;;6.03;3.65;;;;;;;15.69;62.40;100011.92;1790326;80;21130;-50
2021/05/15 01:13:57;;;;;;;4.22;3.50;;;;;;;15.69;62.38;100013.24;1767573;79;21289;-66
2021/05/15 01:16:24;;;;;;;5.60;3.50;;;;;;;15.70;62.27;100006.16;1764082;80;21558;-50
2021/05/15 01:18:52;;;;;;;5.15;3.58;;;;;;;15.67;62.14;100011.14;1758195;80;21296;-50
2021/05/15 01:21:20;;;;;;;6.12;3.92;;;;;;;15.64;61.96;100017.89;1764803;79;21310;-50
2021/05/15 01:23:47;;;;;;;6.47;3.80;;;;;;;15.55;62.17;100024.88;1786103;79;21135;-66
2021/05/15 01:26:23;;;;;;;7.30;4.12;;;;;;;15.48;62.31;100032.19;1772891;79;21208;-50
2021/05/15 01:28:55;;;;;;;8.30;4.25;;;;;;;15.44;62.44;100031.92;1789078;80;21082;-67
2021/05/15 01:31:22;;;;;;;6.72;4.08;;;;;;;15.42;62.58;100035.95;1784274;79;21267;-67
2021/05/15 01:33:50;;;;;;;5.08;4.37;;;;;;;15.46;62.56;100044.64;1761351;81;21709;-50
2021/05/15 01:36:18;;;;;;;6.50;4.10;;;;;;;15.42;62.44;100046.55;1761366;79;21181;-67
2021/05/15 01:38:46;;;;;;;5.58;4.28;;;;;;;15.35;62.41;100049.50;1765179;81;21119;-67
2021/05/15 01:41:15;;;;;;;6.95;4.30;;;;;;;15.26;62.42;100052.02;1769900;79;21897;-50
2021/05/15 01:43:43;;;;;;;;;;;;;;;15.12;62.63;100049.44;1763062;81;21107;-67
2021/05/15 01:46:11;;;;;;;5.87;3.77;;;;;;;15.02;62.86;100046.23;1771638;79;20183;-50
2021/05/15 01:48:38;;;;;;;6.30;4.10;;;;;;;14.97;63.00;100054.83;1767390;79;21353;-67
2021/05/15 01:51:12;;;;;;;5.47;4.00;;;;;;;14.95;63.19;100049.16;1773609;79;21179;-50
2021/05/15 01:53:48;;;;;;;5.35;3.58;;;;;;;14.97;63.23;100046.00;1765832;81;21706;-67
2021/05/15 01:56:22;;;;;;;6.05;4.10;;;;;;;15.02;63.31;100052.00;1771877;79;21535;-66
2021/05/15 01:58:49;;;;;;;5.03;4.40;;;;;;;15.07;63.35;100054.03;1777167;79;21151;-67
2021/05/15 02:01:18;;;;;;;6.62;4.50;;;;;;;15.10;63.33;100049.06;1768295;79;21360;-52
2021/05/15 02:03:45;;;;;;;5.65;3.95;;;;;;;15.12;63.26;100045.45;1767631;81;21553;-66
2021/05/15 02:06:12;;;;;;;4.35;3.80;;;;;;;15.14;63.16;100052.02;1761635;81;21172;-67
2021/05/15 02:08:46;;;;;;;5.28;3.92;;;;;;;15.13;63.12;100051.16;1776843;79;21665;-50
2021/05/15 02:11:16;;;;;;;6.70;3.85;;;;;;;15.14;63.16;100054.66;1762639;79;21180;-67
2021/05/15 02:13:48;;;;;;;7.05;3.70;;;;;;;15.18;63.00;100060.73;1742093;81;21183;-50
2021/05/15 02:16:17;;;;;;;5.20;3.90;;;;;;;15.14;63.00;100078.08;1777580;79;21274;-67
2021/05/15 02:18:46;;;;;;;3.98;3.30;;;;;;;15.06;62.88;100081.45;1761634;81;21602;-50
2021/05/15 02:21:14;;;;;;;7.83;3.80;;;;;;;15.00;62.94;100082.55;1750295;79;21154;-66
2021/05/15 02:23:41;;;;;;;17.80;4.20;;;;;;;14.99;63.02;100078.61;1755715;81;21267;-50
2021/05/15 02:26:08;;;;;;;8.55;3.98;;;;;;;14.98;62.97;100075.56;1756071;79;21285;-66
2021/05/15 02:28:35;;;;;;;5.80;3.77;;;;;;;14.95;63.00;100079.64;1745167;81;21155;-66
2021/05/15 02:31:02;;;;;;;4.22;3.62;;;;;;;14.94;63.03;100087.18;1744885;81;22760;-66
2021/05/15 02:33:29;;;;;;;4.95;3.62;;;;;;;14.99;62.87;100088.77;1746222;82;21166;-66
2021/05/15 02:35:55;;;;;;;4.85;3.75;;;;;;;14.98;62.72;100088.80;1758532;80;21581;-51
2021/05/15 02:38:23;;;;;;;5.97;3.52;;;;;;;14.96;62.69;100085.34;1746842;82;21580;-66
2021/05/15 02:40:53;;;;;;;5.37;3.75;;;;;;;14.93;62.86;100092.08;1723588;82;21200;-51
2021/05/15 02:43:18;;;;;;;5.00;3.72;;;;;;;14.94;62.89;100095.13;1755932;80;21126;-66
2021/05/15 02:45:46;;;;;;;5.78;3.75;;;;;;;14.92;62.93;100102.27;1756503;80;21137;-50
2021/05/15 02:48:16;;;;;;;6.42;3.87;;;;;;;14.89;63.09;100096.62;1747948;82;21118;-65
2021/05/15 02:50:41;;;;;;;5.42;4.30;;;;;;;14.90;63.22;100102.34;1753428;80;21634;-51
2021/05/15 02:53:08;;;;;;;5.95;4.35;;;;;;;14.89;63.29;100107.23;1759767;80;21111;-50
2021/05/15 02:55:36;;;;;;;5.47;4.22;;;;;;;14.92;63.38;100105.80;1753623;80;21162;-51
2021/05/15 02:58:03;;;;;;;9.90;4.33;;;;;;;14.94;63.41;100111.03;1748216;82;21574;-66
2021/05/15 03:00:30;;;;;;;5.55;3.95;;;;;;;14.95;63.43;100115.41;1753598;80;21158;-66
2021/05/15 03:02:57;;;;;;;6.03;4.30;;;;;;;14.93;63.50;100114.16;1759724;80;21158;-50
2021/05/15 03:05:26;;;;;;;7.90;3.75;;;;;;;14.97;63.58;100110.48;1751419;80;21692;-66
2021/05/15 03:07:53;;;;;;;5.90;4.03;;;;;;;15.00;63.63;100110.38;1723544;83;21154;-66
2021/05/15 03:10:23;;;;;;;7.75;4.15;;;;;;;15.06;63.64;100117.23;1726205;80;21201;-51
2021/05/15 03:12:53;;;;;;;4.67;3.77;;;;;;;15.09;63.67;100121.11;1758967;80;21161;-50
2021/05/15 03:15:22;;;;;;;4.22;3.40;;;;;;;15.12;63.73;100125.42;1747137;80;21612;-59
2021/05/15 03:17:52;;;;;;;9.30;4.03;;;;;;;15.06;64.06;100130.48;1753453;82;21170;-66
2021/05/15 03:20:22;;;;;;;5.12;4.33;;;;;;;15.11;64.10;100135.17;1759691;80;21296;-50
2021/05/15 03:22:50;;;;;;;5.65;4.10;;;;;;;15.20;64.09;100133.97;1753830;82;21617;-51
2021/05/15 03:25:18;;;;;;;18.25;4.67;;;;;;;15.25;64.14;100143.08;1745566;82;21168;-66
2021/05/15 03:27:45;;;;;;;5.62;4.30;;;;;;;15.30;64.15;100134.50;1743601;82;21602;-51
2021/05/15 03:30:14;;;;;;;6.85;3.92;;;;;;;15.37;64.21;100129.86;1746301;80;21174;-50
2021/05/15 03:32:42;;;;;;;8.70;5.25;;;;;;;15.42;64.28;100133.22;1769361;80;21259;-66
2021/05/15 03:35:12;;;;;;;4.62;4.00;;;;;;;15.49;64.28;100135.17;1784923;80;21134;-50
2021/05/15 03:37:40;;;;;;;5.55;3.83;;;;;;;15.56;64.34;100133.55;1783173;80;21147;-51
2021/05/15 03:40:08;;;;;;;4.15;3.47;;;;;;;15.65;64.34;100135.47;1766761;79;21131;-66
2021/05/15 03:42:36;;;;;;;5.28;4.00;;;;;;;15.72;64.36;100140.47;1771403;80;21280;-66
2021/05/15 03:45:04;;;;;;;12.30;4.78;;;;;;;15.83;64.36;100138.77;1774292;80;21594;-51
2021/05/15 03:47:31;;;;;;;6.22;4.20;;;;;;;15.91;64.27;100139.34;1769382;79;21300;-50
2021/05/15 03:49:59;;;;;;;7.15;4.50;;;;;;;16.01;64.25;100142.98;1781021;80;21126;-67
2021/05/15 03:52:26;;;;;;;6.15;3.95;;;;;;;16.12;64.25;100147.86;1777826;80;21594;-67
2021/05/15 03:54:53;;;;;;;9.73;3.75;;;;;;;16.20;64.45;100147.98;1770242;80;21522;-67
2021/05/15 03:57:20;;;;;;;5.70;4.05;;;;;;;16.30;64.27;100152.94;1784463;79;21106;-67
2021/05/15 03:59:47;;;;;;;3.95;3.37;;;;;;;16.41;64.20;100149.84;1787602;80;21114;-50
2021/05/15 04:02:14;;;;;;;5.37;3.62;;;;;;;16.50;64.12;100149.48;1764250;80;21137;-51
2021/05/15 04:04:42;;;;;;;5.45;3.45;;;;;;;16.60;63.88;100142.84;1766302;80;21103;-67
2021/05/15 04:07:09;;;;;;;15.88;5.47;;;;;;;16.68;63.57;100141.66;1788111;79;21293;-67
2021/05/15 04:09:36;;;;;;;5.47;3.65;;;;;;;16.78;63.45;100144.34;1789841;80;21118;-51
2021/05/15 04:12:04;;;;;;;5.87;3.50;;;;;;;16.87;63.60;100147.06;1790248;80;21554;-51
2021/05/15 04:14:37;;;;;;;5.40;3.37;;;;;;;16.98;63.34;100150.17;1790704;79;21189;-51
2021/05/15 04:19:35;;;;;;;4.92;3.37;;;;;;;17.22;63.10;100145.59;1828192;77;22167;-50
2021/05/15 04:22:03;;;;;;;4.95;3.10;;;;;;;17.28;62.94;100156.89;1765752;80;21217;-50
2021/05/15 04:24:31;;;;;;;6.60;3.25;;;;;;;17.31;63.11;100152.29;1760598;81;21127;-66
2021/05/15 04:27:00;;;;;;;5.20;3.22;;;;;;;17.39;62.89;100151.49;1743603;81;21115;-66
2021/05/15 04:29:27;;;;;;;8.55;2.87;;;;;;;17.50;62.62;100154.15;1729861;82;21283;-51
2021/05/15 04:31:56;;;;;;;4.10;2.62;;;;;;;17.59;62.64;100148.42;1746852;82;21371;-66
2021/05/15 04:34:24;;;;;;;4.50;2.52;;;;;;;17.74;62.68;100149.96;1751621;81;21162;-51
2021/05/15 04:36:51;;;;;;;4.00;2.70;;;;;;;17.88;62.40;100150.20;1749132;81;21140;-67
2021/05/15 04:39:18;;;;;;;3.10;2.20;;;;;;;18.01;62.33;100154.51;1731920;83;21163;-58
2021/05/15 04:41:45;;;;;;;4.40;2.35;;;;;;;17.97;62.14;100151.11;1753510;81;21281;-53
2021/05/15 04:44:12;;;;;;;3.35;2.20;;;;;;;18.20;61.19;100153.65;1754918;81;21126;-68
2021/05/15 04:46:39;;;;;;;4.15;2.30;;;;;;;18.30;61.01;100152.73;1753847;81;21609;-68
2021/05/15 04:49:06;;;;;;;3.40;2.15;;;;;;;18.42;61.40;100152.14;1747227;82;21154;-68
2021/05/15 04:51:33;;;;;;;11.10;2.80;;;;;;;18.55;61.52;100146.59;1751946;81;21173;-68
2021/05/15 04:54:04;;;;;;;4.03;1.72;;;;;;;18.74;61.23;100149.69;1756015;81;21688;-52
2021/05/15 04:56:35;;;;;;;14.68;3.65;;;;;;;18.92;60.68;100146.55;1757392;81;21546;-68
2021/05/15 04:59:06;;;;;;;4.90;1.80;;;;;;;19.11;60.42;100155.84;1747941;81;21593;-53
2021/05/15 05:01:36;;;;;;;6.12;2.00;;;;;;;19.21;59.04;100156.22;1732585;81;21138;-52
2021/05/15 05:04:07;;;;;;;3.37;1.80;;;;;;;19.30;59.35;100154.41;1727712;83;21160;-68
2021/05/15 05:06:32;;;;;;;1.77;1.57;;;;;;;19.44;59.06;100150.16;1686019;85;21187;-52
2021/05/15 05:08:59;;;;;;;2.77;1.30;;;;;;;19.60;58.92;100156.87;1688258;83;21400;-52
2021/05/15 05:11:27;;;;;;;3.72;1.75;;;;;;;19.78;58.29;100161.69;1696202;83;21288;-68
2021/05/15 05:13:55;;;;;;;3.95;1.07;;;;;;;19.96;58.10;100171.86;1680417;83;21153;-53
2021/05/15 05:16:22;;;;;;;4.00;1.17;;;;;;;20.16;57.12;100164.56;1679288;85;21370;-67
2021/05/15 05:18:49;;;;;;;1.80;0.90;;;;;;;20.29;55.96;100161.61;1686577;84;21165;-53
2021/05/15 05:21:16;;;;;;;2.15;1.40;;;;;;;20.42;55.71;100158.21;1698983;84;21289;-53
2021/05/15 05:23:44;;;;;;;1.65;1.07;;;;;;;20.53;55.02;100158.95;1694152;84;21195;-68
2021/05/15 05:26:11;;;;;;;2.35;1.02;;;;;;;20.64;54.42;100152.03;1692059;84;21139;-68
2021/05/15 05:28:39;;;;;;;1.55;0.90;;;;;;;20.82;54.12;100150.58;1700745;84;21738;-68
2021/05/15 05:31:06;;;;;;;2.35;0.90;;;;;;;21.04;53.22;100147.48;1663225;84;21340;-54
2021/05/15 05:33:34;;;;;;;2.90;1.27;;;;;;;21.21;52.63;100147.80;1670994;84;21282;-68
2021/05/15 05:36:01;;;;;;;2.55;0.90;;;;;;;21.37;52.06;100150.44;1714322;83;21314;-68
2021/05/15 05:38:28;;;;;;;1.47;0.72;;;;;;;21.56;51.69;100153.79;1705704;84;21183;-52
2021/05/15 05:40:55;;;;;;;2.12;0.82;;;;;;;21.72;51.16;100153.72;1714092;84;21309;-68
2021/05/15 05:43:22;;;;;;;2.08;0.70;;;;;;;21.85;50.80;100152.00;1697465;83;21182;-53
2021/05/15 05:45:49;;;;;;;1.47;0.80;;;;;;;21.97;49.46;100143.16;1694189;83;21326;-53
2021/05/15 05:48:18;;;;;;;4.17;0.68;;;;;;;22.14;49.66;100151.95;1705657;84;21187;-54
2021/05/15 05:50:46;;;;;;;1.30;0.80;;;;;;;22.31;47.67;100152.19;1710824;84;21163;-53
2021/05/15 05:53:13;;;;;;;2.52;0.62;;;;;;;22.41;48.36;100153.77;1643455;87;21823;-52
2021/05/15 05:55:40;;;;;;;1.32;0.60;;;;;;;22.52;47.24;100153.97;1629650;86;21185;-68
2021/05/15 05:58:07;;;;;;;1.57;0.70;;;;;;;22.63;45.99;100149.72;1643834;86;21231;-68
2021/05/15 06:00:35;;;;;;;2.50;0.80;;;;;;;22.78;46.28;100156.72;1689487;84;21179;-52
2021/05/15 06:03:02;;;;;;;2.65;0.57;;;;;;;22.93;45.71;100152.17;1670976;86;21666;-53
2021/05/15 06:05:29;;;;;;;3.12;0.90;;;;;;;23.18;45.71;100151.31;1664692;86;21167;-67
2021/05/15 06:08:09;;;;;;;6.75;1.12;;;;;;;23.43;43.54;100144.29;1672902;85;21296;-67
2021/05/15 06:10:38;;;;;;;23.22;2.33;;;;;;;23.63;44.22;100146.03;1693776;84;21301;-66
2021/05/15 06:13:05;;;;;;;1.30;0.47;;;;;;;23.86;42.92;100151.11;1697635;84;21622;-66
2021/05/15 06:15:35;;;;;;;1.37;0.63;;;;;;;24.01;42.04;100154.58;1703151;84;21630;-66
2021/05/15 06:18:03;;;;;;;3.52;0.50;;;;;;;24.05;41.96;100151.16;1719628;81;21251;-52
2021/05/15 06:20:30;;;;;;;1.70;0.47;;;;;;;24.12;42.06;100151.56;1754430;81;21138;-66
2021/05/15 06:22:58;;;;;;;1.67;0.47;;;;;;;24.21;41.56;100150.89;1759417;81;21273;-66
2021/05/15 06:25:25;;;;;;;1.47;0.75;;;;;;;24.32;41.52;100140.69;1729828;81;21231;-66
2021/05/15 06:27:52;;;;;;;2.35;0.80;;;;;;;24.44;41.48;100145.66;1729531;81;21249;-52
2021/05/15 06:30:20;;;;;;;2.33;0.62;;;;;;;24.55;41.31;100149.73;1744142;82;21150;-66
2021/05/15 06:32:47;;;;;;;1.10;0.40;;;;;;;24.83;42.10;100145.00;1743635;81;21609;-53
2021/05/15 06:35:14;;;;;;;1.47;0.70;;;;;;;25.15;41.73;100147.55;1726120;82;21333;-54
2021/05/15 06:37:41;;;;;;;9.58;0.80;;;;;;;25.52;41.23;100148.73;1725872;83;21151;-55
2021/05/15 06:40:10;;;;;;;0.60;0.47;;;;;;;25.67;37.65;100143.95;1743740;81;21730;-66
2021/05/15 06:42:37;;;;;;;2.10;0.50;;;;;;;25.81;37.40;100143.72;1738886;81;21158;-67
2021/05/15 06:45:06;;;;;;;0.68;0.40;;;;;;;25.79;37.20;100143.45;1725805;83;21159;-67
2021/05/15 06:47:33;;;;;;;4.33;0.60;;;;;;;25.88;37.64;100150.80;1729800;81;21140;-67
2021/05/15 06:50:02;;;;;;;6.08;0.88;;;;;;;25.98;37.77;100149.09;1731731;81;21584;-54
2021/05/15 06:52:30;;;;;;;0.85;0.40;;;;;;;26.10;37.60;100145.00;1759001;81;21099;-53
2021/05/15 06:54:57;;;;;;;1.05;0.50;;;;;;;26.23;36.76;100149.80;1759529;81;21170;-53
2021/05/15 06:57:25;;;;;;;4.28;0.42;;;;;;;26.32;35.89;100152.22;1733956;81;21150;-54
2021/05/15 06:59:52;;;;;;;0.70;0.33;;;;;;;26.41;34.90;100154.67;1746111;81;21134;-67
2021/05/15 07:02:19;;;;;;;1.87;0.40;;;;;;;26.51;35.20;100152.89;1725817;83;21182;-66
2021/05/15 07:04:46;;;;;;;0.70;0.30;;;;;;;26.60;34.20;100153.12;1725960;83;21597;-66
2021/05/15 07:07:13;;;;;;;0.88;0.40;;;;;;;26.59;33.27;100149.58;1739755;81;21284;-53
2021/05/15 07:09:41;;;;;;;0.60;0.42;;;;;;;26.72;33.30;100152.94;1740907;81;21142;-53
2021/05/15 07:12:08;;;;;;;0.37;0.20;;;;;;;26.88;32.45;100152.19;1725811;83;21162;-54
2021/05/15 07:14:35;;;;;;;0.80;0.40;;;;;;;26.95;31.04;100147.48;1751762;81;21752;-66
2021/05/15 07:17:02;;;;;;;0.90;0.30;;;;;;;27.05;31.56;100148.88;1758917;81;21147;-67
2021/05/15 07:19:30;;;;;;;0.40;0.30;;;;;;;27.15;30.55;100155.73;1740422;81;21138;-67
2021/05/15 07:21:57;;;;;;;0.20;0.20;;;;;;;27.09;30.90;100156.25;1742340;82;21313;-52
2021/05/15 07:24:24;;;;;;;12.10;1.72;;;;;;;27.21;31.32;100151.12;1727334;82;21619;-66
2021/05/15 07:26:51;;;;;;;1.85;0.30;;;;;;;27.28;31.63;100151.47;1754861;82;21281;-67
2021/05/15 07:29:18;;;;;;;0.65;0.30;;;;;;;27.25;31.00;100161.19;1754958;82;21147;-52
2021/05/15 07:31:45;;;;;;;1.37;0.37;;;;;;;27.09;30.63;100157.60;1754788;82;21343;-52
2021/05/15 07:34:12;;;;;;;1.27;0.25;;;;;;;27.13;31.38;100157.19;1754632;82;21625;-52
2021/05/15 07:36:39;;;;;;;0.57;0.20;;;;;;;27.23;31.49;100161.81;1755374;82;21154;-66
2021/05/15 07:39:06;;;;;;;0.40;0.30;;;;;;;27.34;30.88;100159.52;1756063;81;21317;-52
2021/05/15 07:41:35;;;;;;;1.45;0.20;;;;;;;27.44;29.35;100165.33;1756019;82;21127;-67
2021/05/15 07:44:03;;;;;;;3.95;0.47;;;;;;;27.43;30.66;100161.42;1755519;82;21602;-53
2021/05/15 07:46:30;;;;;;;0.50;0.23;;;;;;;27.57;30.21;100163.82;1756339;82;21357;-67
2021/05/15 07:48:57;;;;;;;5.97;0.75;;;;;;;27.72;30.80;100168.36;1756182;82;21769;-66
2021/05/15 07:51:25;;;;;;;1.80;0.40;;;;;;;27.88;30.07;100166.50;1738727;82;21156;-53
2021/05/15 07:53:54;;;;;;;0.57;0.30;;;;;;;27.94;30.28;100165.59;1728449;82;21181;-53
2021/05/15 07:56:22;;;;;;;1.00;0.28;;;;;;;27.90;30.75;100173.11;1748577;82;21258;-54
2021/05/15 07:58:49;;;;;;;0.30;0.30;;;;;;;27.95;29.61;100167.31;1756207;82;21170;-53
2021/05/15 08:01:16;;;;;;;1.20;0.30;;;;;;;27.89;30.20;100170.05;1756095;81;21119;-67
2021/05/15 08:03:44;;;;;;;2.47;0.30;;;;;;;27.95;29.98;100174.08;1745882;82;21328;-53
2021/05/15 08:06:10;;;;;;;2.35;0.30;;;;;;;27.95;30.12;100174.91;1744552;82;21226;-53
2021/05/15 08:08:38;;;;;;;0.62;0.40;;;;;;;28.01;30.34;100183.00;1720164;83;21236;-53
2021/05/15 08:11:05;;;;;;;0.80;0.23;;;;;;;28.04;29.54;100181.34;1742029;82;21180;-53
2021/05/15 08:13:33;;;;;;;3.98;0.70;;;;;;;28.04;29.14;100180.86;1742038;82;21132;-67
2021/05/15 08:16:00;;;;;;;1.90;0.42;;;;;;;28.15;29.91;100180.43;1739052;82;21156;-53
2021/05/15 08:18:28;;;;;;;0.80;0.30;;;;;;;28.24;29.17;100181.44;1731771;81;21138;-66
2021/05/15 08:20:55;;;;;;;1.22;0.55;;;;;;;28.24;29.42;100186.37;1745961;81;21292;-67
2021/05/15 08:23:22;;;;;;;0.75;0.25;;;;;;;28.26;29.38;100187.06;1686053;84;21561;-55
2021/05/15 08:25:49;;;;;;;0.53;0.30;;;;;;;28.27;29.96;100182.52;1667037;86;21805;-53
2021/05/15 08:28:17;;;;;;;5.70;0.53;;;;;;;28.29;30.18;100186.78;1696446;84;21151;-54
2021/05/15 08:30:44;;;;;;;1.40;0.47;;;;;;;28.30;29.83;100185.79;1683155;84;21286;-66
2021/05/15 08:33:12;;;;;;;1.62;0.50;;;;;;;28.45;29.70;100185.40;1687416;84;21285;-66
2021/05/15 08:35:39;;;;;;;0.40;0.30;;;;;;;28.53;29.79;100177.92;1680856;84;21184;-53
2021/05/15 08:38:06;;;;;;;2.47;0.40;;;;;;;28.69;29.14;100182.80;1679003;85;21171;-66
2021/05/15 08:40:33;;;;;;;1.52;0.40;;;;;;;28.71;29.51;100186.20;1682227;84;21325;-53
2021/05/15 08:43:01;;;;;;;1.07;0.40;;;;;;;28.76;28.85;100182.12;1723447;83;21138;-67
2021/05/15 08:45:28;;;;;;;6.85;1.15;;;;;;;28.85;28.38;100179.55;1725238;82;21161;-67
2021/05/15 08:47:56;;;;;;;1.95;0.50;;;;;;;29.03;28.76;100177.81;1705269;84;21175;-53
2021/05/15 08:50:25;;;;;;;11.97;1.20;;;;;;;29.17;28.88;100179.22;1706497;83;21356;-53
2021/05/15 08:52:54;;;;;;;1.62;0.40;;;;;;;29.31;28.45;100170.29;1707208;84;21314;-53
2021/05/15 08:55:27;;;;;;;0.30;0.20;;;;;;;29.36;28.38;100174.26;1705346;84;21567;-67
2021/05/15 08:57:55;;;;;;;0.30;0.30;;;;;;;29.46;28.21;100169.35;1707071;84;21329;-66
2021/05/15 09:00:28;;;;;;;2.62;0.45;;;;;;;29.61;28.24;100167.02;1699219;84;21535;-66
2021/05/15 09:02:59;;;;;;;1.37;0.40;;;;;;;29.72;27.95;100170.06;1725914;83;21146;-66
2021/05/15 09:05:34;;;;;;;0.62;0.40;;;;;;;29.89;27.96;100154.34;1800560;77;22186;-66
2021/05/15 09:08:09;;;;;;;0.72;0.40;;;;;;;29.95;27.32;100155.61;1834719;77;22152;-52
2021/05/15 09:10:46;;;;;;;1.55;0.40;;;;;;;29.93;27.23;100155.75;1815474;77;22221;-52
2021/05/15 09:13:32;;;;;;;0.55;0.35;;;;;;;29.96;27.94;100163.59;1761685;81;21610;-54
2021/05/15 09:16:24;;;;;;;15.25;1.62;;;;;;;30.31;26.46;100142.14;1812870;77;22256;-52
2021/05/15 09:19:05;;;;;;;10.48;1.57;;;;;;;30.50;26.85;100149.77;1818250;77;22154;-66
2021/05/15 09:22:03;;;;;;;1.02;0.50;;;;;;;30.52;25.83;100153.19;1758606;81;21377;-66
2021/05/15 09:24:39;;;;;;;1.37;0.23;;;;;;;30.50;26.03;100152.48;1823662;77;22138;-66
2021/05/15 09:27:13;;;;;;;1.77;0.40;;;;;;;30.44;26.08;100145.83;1834739;77;22152;-52
2021/05/15 09:29:50;;;;;;;8.28;0.98;;;;;;;30.48;25.61;100147.72;1827528;77;22112;-65
2021/05/15 09:32:33;;;;;;;1.22;0.40;;;;;;;30.34;26.18;100145.91;1834768;77;22591;-53
2021/05/15 09:35:08;;;;;;;2.25;0.40;;;;;;;30.48;26.23;100149.07;1847486;77;22593;-66
2021/05/15 09:37:43;;;;;;;78.25;6.80;;;;;;;30.65;25.67;100147.42;1806166;77;22636;-52
2021/05/15 09:40:19;;;;;;;1.05;0.40;;;;;;;30.87;26.44;100148.80;1810235;77;22185;-66
2021/05/15 09:43:07;;;;;;;8.38;1.57;;;;;;;30.92;24.61;100150.52;1748250;81;21135;-53
2021/05/15 09:45:40;;;;;;;1.80;0.47;;;;;;;30.98;25.72;100134.95;1812093;77;22198;-66
2021/05/15 09:48:34;;;;;;;2.92;0.70;;;;;;;30.16;25.14;100132.80;1830626;77;22120;-52
2021/05/15 09:51:16;;;;;;;0.80;0.30;;;;;;;29.82;26.62;100137.82;1775461;80;21729;-53
2021/05/15 09:53:49;;;;;;;2.05;0.33;;;;;;;30.95;25.55;100142.05;1834768;77;22116;-52
2021/05/15 09:56:28;;;;;;;0.40;0.33;;;;;;;30.91;25.20;100137.11;1794393;77;22214;-65
2021/05/15 09:59:13;;;;;;;0.30;0.30;;;;;;;31.11;24.83;100146.78;1679912;85;21610;-67
2021/05/15 10:01:46;;;;;;;1.80;0.20;;;;;;;31.13;25.14;100135.73;1803729;77;22158;-66
2021/05/15 10:04:23;;;;;;;1.98;0.40;;;;;;;31.53;24.49;100131.59;1822808;77;22158;-52
2021/05/15 10:06:56;;;;;;;1.05;0.60;;;;;;;31.58;24.70;100133.33;1821350;77;22173;-52
2021/05/15 10:09:42;;;;;;;2.20;0.78;;;;;;;31.25;24.30;100131.78;1775379;80;21139;-53
2021/05/15 10:12:15;;;;;;;3.05;0.50;;;;;;;31.19;24.14;100130.19;1849238;77;22578;-52
2021/05/15 10:14:49;;;;;;;3.55;0.47;;;;;;;31.21;24.09;100126.32;1835585;77;22190;-66
2021/05/15 10:17:23;;;;;;;21.25;2.37;;;;;;;31.23;24.36;100133.81;1808250;77;22154;-52
2021/05/15 10:20:10;;;;;;;1.27;0.60;;;;;;;31.15;24.36;100140.02;1768306;80;21634;-67
2021/05/15 10:22:44;;;;;;;2.12;0.62;;;;;;;31.30;24.44;100136.23;1834761;77;22611;-52
2021/05/15 10:25:17;;;;;;;4.75;0.60;;;;;;;31.52;23.76;100134.48;1842968;77;22202;-52
2021/05/15 10:27:50;;;;;;;1.05;0.30;;;;;;;31.73;23.91;100131.39;1834712;77;22180;-65
2021/05/15 10:30:24;;;;;;;3.17;0.85;;;;;;;32.06;23.96;100135.59;1843526;77;22198;-66
2021/05/15 10:33:02;;;;;;;1.30;0.50;;;;;;;32.22;24.51;100135.30;1834752;77;22603;-67
2021/05/15 10:35:48;;;;;;;1.70;0.60;;;;;;;32.22;24.51;100135.30;1724992;82;21149;-67
2021/05/15 10:38:21;;;;;;;0.62;0.42;;;;;;;32.29;24.00;100124.09;1828917;77;22139;-66
2021/05/15 10:40:55;;;;;;;1.42;0.40;;;;;;;32.15;24.55;100126.43;1836031;77;22177;-52
2021/05/15 10:43:32;;;;;;;0.90;0.50;;;;;;;31.90;24.39;100140.47;1853120;77;22171;-65
2021/05/15 10:46:29;;;;;;;0.55;0.40;;;;;;;31.59;24.44;100132.30;1832893;77;22197;-66
2021/05/15 10:49:13;;;;;;;2.33;0.50;;;;;;;31.35;24.61;100133.02;1826320;77;22140;-66
2021/05/15 10:51:59;;;;;;;0.50;0.40;;;;;;;31.07;25.52;100141.80;1764410;79;21272;-53
2021/05/15 10:54:39;;;;;;;0.85;0.42;;;;;;;30.88;25.31;100134.22;1828527;77;22194;-66
2021/05/15 10:57:15;;;;;;;2.02;0.60;;;;;;;30.69;25.44;100137.44;1820097;77;22573;-66
2021/05/15 11:00:02;;;;;;;1.12;0.40;;;;;;;30.48;25.57;100137.73;1835992;77;27922;-66
2021/05/15 11:02:37;;;;;;;0.70;0.50;;;;;;;30.15;26.47;100134.67;1834762;77;22132;-66
2021/05/15 11:05:17;;;;;;;1.35;0.65;;;;;;;30.18;26.19;100128.95;1828143;77;22170;-52
2021/05/15 11:07:50;;;;;;;0.72;0.35;;;;;;;30.43;26.27;100139.20;1823660;77;22120;-53
2021/05/15 11:10:23;;;;;;;2.37;0.50;;;;;;;30.50;26.03;100130.28;1818745;77;22197;-65
2021/05/15 11:12:57;;;;;;;0.65;0.40;;;;;;;30.84;25.80;100141.80;1834676;77;22176;-66
2021/05/15 11:15:44;;;;;;;0.55;0.40;;;;;;;30.97;24.87;100131.87;1699057;83;21197;-67
2021/05/15 11:18:28;;;;;;;2.05;0.40;;;;;;;31.15;25.05;100121.00;1829621;77;22190;-52
2021/05/15 11:21:07;;;;;;;0.90;0.37;;;;;;;31.37;25.26;100120.61;1802561;77;22187;-52
2021/05/15 11:23:50;;;;;;;0.80;0.40;;;;;;;31.44;25.18;100130.70;1815640;77;22155;-67
2021/05/15 11:29:13;;;;;;;0.62;0.40;;;;;;;31.57;24.44;100123.98;1828097;77;22135;-65
2021/05/15 11:31:46;;;;;;;0.68;0.20;;;;;;;31.73;24.63;100116.43;1806016;77;22166;-66
2021/05/15 11:34:23;;;;;;;0.78;0.40;;;;;;;31.74;23.81;100110.81;1804395;77;27956;-52
2021/05/15 11:36:56;;;;;;;1.82;0.30;;;;;;;31.84;24.17;100115.27;1804480;77;22166;-66
2021/05/15 11:39:51;;;;;;;9.48;0.75;;;;;;;32.06;23.85;100120.61;1761765;80;21131;-67
2021/05/15 11:42:30;;;;;;;0.70;0.30;;;;;;;32.08;23.72;100109.05;1827269;77;22139;-65
2021/05/15 11:45:05;;;;;;;0.55;0.30;;;;;;;32.29;23.92;100114.06;1830046;77;22206;-52